createdAt,value
2019-03-20T00:02:10.643Z,6.58
2019-03-20T00:04:48.979Z,7.45
2019-03-20T00:07:08.833Z,6.45
2019-03-20T00:09:37.072Z,6.55
2019-03-20T00:12:05.323Z,7.17
2019-03-20T00:14:33.548Z,7.78
2019-03-20T00:17:03.935Z,6.87
2019-03-20T00:19:31.736Z,6.83
2019-03-20T00:21:59.980Z,6.12
2019-03-20T00:24:28.190Z,6.50
2019-03-20T00:26:56.437Z,6.87
2019-03-20T00:29:24.694Z,5.78
2019-03-20T00:31:52.907Z,6.40
2019-03-20T00:34:21.169Z,6.58
2019-03-20T00:36:49.411Z,6.72
2019-03-20T00:39:17.722Z,6.80
2019-03-20T00:41:45.952Z,6.10
2019-03-20T00:44:14.182Z,5.72
2019-03-20T00:46:42.437Z,6.62
2019-03-20T00:49:10.665Z,5.83
2019-03-20T00:51:38.908Z,5.92
2019-03-20T00:54:07.134Z,5.62
2019-03-20T00:56:35.369Z,6.55
2019-03-20T00:59:03.629Z,5.75
2019-03-20T01:01:31.853Z,6.25
2019-03-20T01:04:00.117Z,6.20
2019-03-20T01:06:28.336Z,6.20
2019-03-20T01:08:56.564Z,5.75
2019-03-20T01:11:24.809Z,5.95
2019-03-20T01:13:53.040Z,6.58
2019-03-20T01:16:21.288Z,6.85
2019-03-20T01:18:49.498Z,5.65
2019-03-20T01:21:17.750Z,5.40
2019-03-20T01:23:45.977Z,5.10
2019-03-20T01:26:14.220Z,5.70
2019-03-20T01:28:42.456Z,5.65
2019-03-20T01:31:10.691Z,5.58
2019-03-20T01:33:38.937Z,6.00
2019-03-20T01:36:07.184Z,5.40
2019-03-20T01:38:35.420Z,4.83
2019-03-20T01:41:03.669Z,5.70
2019-03-20T01:43:31.894Z,5.85
2019-03-20T01:46:00.139Z,5.33
2019-03-20T01:48:28.382Z,5.97
2019-03-20T01:50:59.876Z,6.37
2019-03-20T01:53:28.093Z,6.03
2019-03-20T01:55:56.328Z,6.03
2019-03-20T01:58:24.541Z,6.15
2019-03-20T02:00:52.789Z,5.53
2019-03-20T02:03:21.015Z,5.78
2019-03-20T02:05:49.226Z,5.30
2019-03-20T02:08:17.475Z,5.10
2019-03-20T02:10:45.730Z,5.65
2019-03-20T02:13:13.958Z,5.53
2019-03-20T02:15:42.199Z,5.72
2019-03-20T02:18:10.451Z,5.72
2019-03-20T02:20:38.672Z,6.00
2019-03-20T02:23:06.917Z,5.67
2019-03-20T02:25:35.133Z,6.35
2019-03-20T02:28:03.380Z,5.90
2019-03-20T02:30:31.611Z,4.87
2019-03-20T02:32:59.851Z,6.35
2019-03-20T02:35:28.091Z,5.97
2019-03-20T02:37:56.331Z,5.40
2019-03-20T02:40:24.569Z,5.35
2019-03-20T02:42:52.809Z,5.47
2019-03-20T02:45:21.033Z,5.78
2019-03-20T02:47:49.258Z,5.55
2019-03-20T02:50:17.487Z,5.70
2019-03-20T02:52:45.703Z,6.25
2019-03-20T02:55:13.964Z,5.83
2019-03-20T02:57:42.180Z,5.55
2019-03-20T03:00:17.686Z,5.42
2019-03-20T03:02:45.970Z,5.72
2019-03-20T03:05:14.576Z,5.67
2019-03-20T03:07:42.824Z,5.08
2019-03-20T03:10:18.334Z,5.40
2019-03-20T03:12:46.589Z,5.40
2019-03-20T03:15:15.544Z,5.78
2019-03-20T03:17:43.761Z,5.83
2019-03-20T03:20:13.149Z,5.40
2019-03-20T03:22:41.383Z,5.70
2019-03-20T03:25:10.468Z,5.78
2019-03-20T03:27:38.704Z,5.50
2019-03-20T03:30:16.079Z,5.40
2019-03-20T03:32:44.522Z,5.87
2019-03-20T03:35:17.094Z,5.83
2019-03-20T03:37:42.681Z,5.97
2019-03-20T03:40:15.131Z,5.95
2019-03-20T03:42:43.368Z,6.42
2019-03-20T03:45:13.218Z,6.28
2019-03-20T03:47:41.486Z,5.78
2019-03-20T03:50:10.159Z,5.83
2019-03-20T03:52:38.452Z,6.05
2019-03-20T03:55:08.573Z,6.22
2019-03-20T03:57:36.844Z,5.72
2019-03-20T04:00:08.344Z,5.85
2019-03-20T04:02:36.572Z,6.58
2019-03-20T04:05:05.384Z,5.67
2019-03-20T04:07:33.623Z,5.35
2019-03-20T04:10:01.878Z,5.72
2019-03-20T04:12:30.112Z,6.90
2019-03-20T04:14:58.341Z,5.87
2019-03-20T04:17:27.140Z,6.25
2019-03-20T04:19:55.377Z,5.72
2019-03-20T04:22:23.613Z,6.03
2019-03-20T04:24:51.931Z,6.25
2019-03-20T04:27:20.155Z,5.78
2019-03-20T04:29:48.407Z,5.85
2019-03-20T04:32:16.628Z,5.70
2019-03-20T04:34:44.878Z,5.50
2019-03-20T04:37:13.086Z,6.33
2019-03-20T04:39:41.325Z,5.80
2019-03-20T04:42:09.538Z,5.80
2019-03-20T04:44:37.798Z,6.12
2019-03-20T04:47:06.062Z,6.90
2019-03-20T04:49:34.292Z,5.92
2019-03-20T04:52:02.514Z,5.75
2019-03-20T04:54:30.740Z,5.60
2019-03-20T04:56:58.986Z,5.90
2019-03-20T04:59:27.211Z,5.78
2019-03-20T05:01:55.465Z,6.05
2019-03-20T05:04:23.684Z,5.75
2019-03-20T05:06:58.759Z,5.92
2019-03-20T05:09:21.871Z,5.62
2019-03-20T05:11:50.131Z,6.40
2019-03-20T05:14:18.373Z,5.33
2019-03-20T05:16:46.623Z,5.72
2019-03-20T05:19:14.859Z,6.35
2019-03-20T05:21:43.094Z,5.60
2019-03-20T05:24:11.326Z,5.92
2019-03-20T05:26:39.579Z,4.87
2019-03-20T05:29:07.791Z,5.37
2019-03-20T05:31:36.020Z,5.50
2019-03-20T05:34:04.270Z,5.70
2019-03-20T05:36:32.513Z,5.35
2019-03-20T05:39:00.742Z,5.22
2019-03-20T05:41:28.999Z,5.62
2019-03-20T05:43:57.212Z,5.15
2019-03-20T05:46:25.440Z,5.35
2019-03-20T05:48:53.689Z,5.75
2019-03-20T05:51:21.945Z,5.78
2019-03-20T05:53:50.168Z,6.60
2019-03-20T05:56:18.424Z,6.28
2019-03-20T05:58:46.650Z,5.87
2019-03-20T06:01:14.877Z,5.70
2019-03-20T06:03:43.117Z,6.03
2019-03-20T06:06:11.336Z,5.67
2019-03-20T06:08:39.582Z,5.58
2019-03-20T06:11:07.816Z,5.83
2019-03-20T06:13:36.067Z,5.72
2019-03-20T06:16:04.294Z,5.62
2019-03-20T06:18:32.514Z,6.15
2019-03-20T06:21:00.750Z,6.85
2019-03-20T06:23:28.992Z,6.15
2019-03-20T06:25:57.226Z,7.03
2019-03-20T06:28:25.446Z,6.37
2019-03-20T06:30:53.694Z,6.33
2019-03-20T06:33:21.918Z,7.20
2019-03-20T06:35:50.173Z,6.58
2019-03-20T06:38:18.401Z,6.78
2019-03-20T06:40:46.649Z,6.35
2019-03-20T06:43:14.882Z,5.95
2019-03-20T06:45:43.139Z,6.95
2019-03-20T06:48:11.376Z,6.45
2019-03-20T06:50:39.609Z,5.67
2019-03-20T06:53:07.847Z,9.40
2019-03-20T06:55:36.072Z,9.45
2019-03-20T06:58:04.313Z,8.03
2019-03-20T07:00:50.408Z,8.63
2019-03-20T07:03:43.936Z,7.62
2019-03-20T07:06:39.086Z,6.80
2019-03-20T07:09:16.408Z,7.87
2019-03-20T07:11:44.626Z,8.45
2019-03-20T07:14:12.885Z,7.33
2019-03-20T07:16:41.129Z,6.10
2019-03-20T07:19:09.381Z,6.08
2019-03-20T07:21:37.624Z,6.28
2019-03-20T07:24:05.850Z,6.05
2019-03-20T07:26:34.108Z,6.03
2019-03-20T07:29:02.333Z,6.12
2019-03-20T07:31:30.551Z,6.90
2019-03-20T07:33:58.799Z,7.97
2019-03-20T07:36:27.059Z,6.30
2019-03-20T07:38:55.319Z,6.72
2019-03-20T07:41:23.540Z,5.75
2019-03-20T07:43:51.780Z,5.95
2019-03-20T07:46:20.089Z,6.85
2019-03-20T07:48:48.432Z,6.85
2019-03-20T07:51:16.651Z,7.92
2019-03-20T07:53:44.900Z,6.35
2019-03-20T07:56:13.161Z,7.55
2019-03-20T07:58:41.421Z,6.10
2019-03-20T08:01:09.681Z,6.92
2019-03-20T08:03:37.919Z,6.62
2019-03-20T08:06:06.163Z,6.85
2019-03-20T08:08:34.403Z,7.10
2019-03-20T08:11:02.636Z,7.50
2019-03-20T08:13:30.862Z,6.40
2019-03-20T08:15:59.086Z,6.22
2019-03-20T08:18:27.342Z,7.58
2019-03-20T08:20:55.546Z,7.08
2019-03-20T08:23:23.814Z,6.62
2019-03-20T08:25:52.044Z,6.35
2019-03-20T08:28:20.289Z,5.78
2019-03-20T08:30:48.528Z,5.83
2019-03-20T08:33:16.785Z,6.22
2019-03-20T08:35:45.018Z,6.05
2019-03-20T08:38:18.103Z,4.97
2019-03-20T08:40:43.228Z,6.80
2019-03-20T08:43:11.473Z,5.75
2019-03-20T08:45:39.696Z,6.25
2019-03-20T08:48:09.930Z,6.30
2019-03-20T08:50:38.529Z,5.53
2019-03-20T08:53:06.772Z,5.60
2019-03-20T08:55:34.996Z,5.30
2019-03-20T08:58:03.260Z,5.50
2019-03-20T09:00:31.484Z,4.30
2019-03-20T09:02:59.749Z,5.30
2019-03-20T09:05:27.978Z,4.60
2019-03-20T09:07:56.223Z,4.62
2019-03-20T09:10:26.648Z,4.10
2019-03-20T09:12:54.882Z,4.47
2019-03-20T09:15:23.136Z,3.70
2019-03-20T09:17:51.346Z,3.85
2019-03-20T09:20:21.621Z,4.60
2019-03-20T09:22:49.855Z,4.35
2019-03-20T09:25:19.048Z,5.22
2019-03-20T09:27:47.275Z,4.78
2019-03-20T09:30:25.335Z,4.17
2019-03-20T09:32:53.556Z,4.75
2019-03-20T09:35:21.823Z,4.28
2019-03-20T09:37:52.409Z,4.37
2019-03-20T09:40:25.029Z,4.87
2019-03-20T09:42:53.261Z,3.95
2019-03-20T09:45:22.326Z,4.42
2019-03-20T09:47:50.568Z,4.00
2019-03-20T09:50:19.878Z,3.45
2019-03-20T09:52:50.004Z,3.92
2019-03-20T09:55:18.082Z,4.12
2019-03-20T09:57:46.358Z,4.17
2019-03-20T10:00:25.383Z,2.87
2019-03-20T10:02:53.685Z,2.60
2019-03-20T10:05:21.991Z,2.90
2019-03-20T10:07:50.324Z,2.67
2019-03-20T10:10:25.943Z,2.42
2019-03-20T10:12:54.165Z,2.95
2019-03-20T10:15:24.992Z,3.20
2019-03-20T10:17:53.259Z,3.33
2019-03-20T10:20:22.022Z,2.75
2019-03-20T10:22:50.258Z,3.02
2019-03-20T10:25:18.676Z,3.20
2019-03-20T10:27:46.921Z,3.80
2019-03-20T10:30:22.187Z,2.90
2019-03-20T10:32:50.430Z,2.75
2019-03-20T10:35:18.716Z,3.20
2019-03-20T10:37:47.002Z,4.42
2019-03-20T10:40:22.223Z,2.67
2019-03-20T10:42:50.467Z,2.60
2019-03-20T10:45:19.345Z,2.80
2019-03-20T10:47:47.580Z,2.83
2019-03-20T10:50:23.140Z,2.72
2019-03-20T10:52:51.377Z,2.55
2019-03-20T10:55:19.676Z,2.90
2019-03-20T10:57:47.938Z,3.12
2019-03-20T11:00:24.388Z,2.80
2019-03-20T11:02:52.710Z,3.67
2019-03-20T11:05:21.026Z,2.75
2019-03-20T11:07:49.253Z,2.75
2019-03-20T11:10:22.767Z,2.27
2019-03-20T11:12:51.056Z,2.22
2019-03-20T11:15:21.174Z,2.12
2019-03-20T11:17:49.605Z,2.52
2019-03-20T11:20:18.676Z,2.35
2019-03-20T11:22:46.919Z,2.27
2019-03-20T11:25:23.330Z,2.80
2019-03-20T11:27:51.542Z,3.98
2019-03-20T11:30:27.723Z,2.20
2019-03-20T11:35:23.468Z,2.10
2019-03-20T11:37:51.727Z,2.50
2019-03-20T11:40:32.081Z,2.27
2019-03-20T11:43:00.332Z,3.05
2019-03-20T11:45:28.566Z,2.08
2019-03-20T11:47:56.784Z,1.95
2019-03-20T11:50:33.907Z,2.95
2019-03-20T11:53:02.123Z,2.20
2019-03-20T11:55:30.363Z,2.47
2019-03-20T11:57:58.631Z,1.95
2019-03-20T12:00:26.866Z,2.60
2019-03-20T12:02:55.090Z,2.00
2019-03-20T12:05:23.362Z,1.55
2019-03-20T12:07:51.596Z,1.80
2019-03-20T12:10:30.910Z,1.90
2019-03-20T12:12:59.155Z,2.10
2019-03-20T12:15:27.371Z,2.27
2019-03-20T12:17:55.634Z,1.77
2019-03-20T12:20:24.402Z,2.77
2019-03-20T12:22:52.683Z,1.72
2019-03-20T12:25:27.100Z,2.00
2019-03-20T12:27:55.320Z,2.00
2019-03-20T12:30:25.493Z,1.67
2019-03-20T12:32:53.817Z,2.60
2019-03-20T12:35:22.995Z,2.12
2019-03-20T12:37:51.277Z,2.45
2019-03-20T12:40:24.335Z,1.80
2019-03-20T12:42:52.624Z,2.17
2019-03-20T12:45:25.787Z,2.00
2019-03-20T12:47:54.025Z,2.40
2019-03-20T12:50:22.257Z,2.00
2019-03-20T12:52:50.508Z,1.90
2019-03-20T12:55:19.603Z,2.25
2019-03-20T12:57:47.849Z,2.00
2019-03-20T13:00:24.095Z,1.80
2019-03-20T13:02:52.338Z,2.37
2019-03-20T13:05:20.633Z,2.00
2019-03-20T13:07:48.870Z,1.67
2019-03-20T13:10:21.632Z,1.50
2019-03-20T13:12:49.932Z,2.37
2019-03-20T13:15:24.671Z,1.80
2019-03-20T13:17:54.181Z,1.70
2019-03-20T13:20:22.405Z,1.85
2019-03-20T13:22:56.701Z,1.65
2019-03-20T13:25:24.928Z,1.52
2019-03-20T13:27:53.157Z,2.15
2019-03-20T13:30:26.991Z,2.67
2019-03-20T13:32:55.213Z,1.72
2019-03-20T13:35:23.445Z,1.47
2019-03-20T13:37:51.690Z,1.60
2019-03-20T13:40:19.926Z,1.67
2019-03-20T13:42:48.169Z,1.87
2019-03-20T13:45:19.240Z,2.22
2019-03-20T13:47:47.461Z,2.05
2019-03-20T13:50:16.010Z,2.47
2019-03-20T13:52:44.272Z,1.67
2019-03-20T13:55:14.523Z,1.32
2019-03-20T13:57:42.783Z,1.50
2019-03-20T14:00:26.656Z,1.95
2019-03-20T14:02:54.884Z,1.65
2019-03-20T14:05:23.181Z,1.20
2019-03-20T14:07:51.449Z,1.35
2019-03-20T14:10:25.736Z,1.72
2019-03-20T14:12:54.192Z,2.17
2019-03-20T14:15:22.437Z,1.60
2019-03-20T14:17:50.665Z,1.55
2019-03-20T14:20:27.361Z,2.42
2019-03-20T14:22:55.604Z,1.98
2019-03-20T14:25:23.856Z,1.92
2019-03-20T14:27:52.511Z,1.70
2019-03-20T14:30:28.544Z,1.87
2019-03-20T14:35:24.398Z,2.02
2019-03-20T14:37:52.641Z,3.02
2019-03-20T14:40:23.105Z,1.90
2019-03-20T14:42:51.377Z,1.67
2019-03-20T14:45:19.687Z,1.92
2019-03-20T14:47:47.950Z,1.60
2019-03-20T14:50:26.477Z,1.70
2019-03-20T14:52:54.742Z,1.42
2019-03-20T14:55:22.961Z,1.40
2019-03-20T14:57:51.196Z,1.60
2019-03-20T15:00:21.189Z,1.60
2019-03-20T15:02:49.430Z,1.52
2019-03-20T15:05:17.698Z,2.00
2019-03-20T15:07:45.916Z,2.02
2019-03-20T15:10:20.293Z,1.60
2019-03-20T15:12:48.610Z,3.55
2019-03-20T15:15:25.945Z,1.32
2019-03-20T15:17:54.166Z,2.08
2019-03-20T15:20:22.422Z,1.60
2019-03-20T15:22:50.666Z,2.47
2019-03-20T15:25:18.886Z,1.72
2019-03-20T15:27:47.150Z,1.80
2019-03-20T15:30:20.706Z,1.77
2019-03-20T15:32:48.968Z,1.72
2019-03-20T15:35:17.192Z,1.52
2019-03-20T15:37:45.438Z,1.40
2019-03-20T15:40:23.867Z,2.02
2019-03-20T15:42:52.115Z,1.85
2019-03-20T15:45:20.379Z,1.87
2019-03-20T15:47:48.630Z,2.40
2019-03-20T15:50:19.276Z,1.70
2019-03-20T15:52:47.498Z,2.10
2019-03-20T15:55:21.828Z,1.35
2019-03-20T15:57:50.058Z,2.17
2019-03-20T16:00:20.563Z,1.50
2019-03-20T16:02:50.668Z,1.60
2019-03-20T16:05:18.931Z,1.90
2019-03-20T16:07:47.154Z,2.15
2019-03-20T16:10:18.022Z,1.70
2019-03-20T16:12:46.254Z,3.02
2019-03-20T16:15:17.018Z,2.40
2019-03-20T16:17:45.338Z,2.27
2019-03-20T16:20:14.208Z,2.35
2019-03-20T16:22:42.471Z,1.67
2019-03-20T16:25:15.281Z,1.90
2019-03-20T16:27:43.578Z,1.60
2019-03-20T16:30:23.186Z,2.60
2019-03-20T16:32:51.412Z,1.98
2019-03-20T16:35:19.682Z,1.52
2019-03-20T16:37:47.913Z,1.82
2019-03-20T16:40:21.558Z,2.08
2019-03-20T16:42:49.876Z,2.33
2019-03-20T16:45:26.769Z,2.08
2019-03-20T16:47:55.018Z,1.75
2019-03-20T16:50:23.264Z,2.17
2019-03-20T16:52:51.488Z,2.10
2019-03-20T16:55:19.744Z,2.37
2019-03-20T16:57:47.967Z,2.10
2019-03-20T17:00:24.197Z,2.10
2019-03-20T17:02:52.446Z,2.95
2019-03-20T17:05:20.702Z,2.22
2019-03-20T17:07:48.948Z,2.25
2019-03-20T17:10:23.292Z,2.72
2019-03-20T17:12:51.532Z,2.20
2019-03-20T17:15:21.708Z,2.30
2019-03-20T17:17:49.969Z,2.47
2019-03-20T17:20:18.200Z,3.45
2019-03-20T17:22:46.439Z,2.85
2019-03-20T17:25:14.657Z,3.17
2019-03-20T17:27:42.907Z,3.72
2019-03-20T17:30:16.903Z,3.10
2019-03-20T17:32:45.170Z,2.85
2019-03-20T17:35:13.896Z,2.95
2019-03-20T17:37:42.132Z,2.83
2019-03-20T17:40:18.199Z,2.95
2019-03-20T17:42:46.474Z,3.05
2019-03-20T17:45:16.653Z,2.70
2019-03-20T17:47:44.888Z,2.92
2019-03-20T17:50:15.950Z,3.10
2019-03-20T17:52:45.253Z,3.05
2019-03-20T17:55:13.608Z,2.42
2019-03-20T17:57:41.861Z,2.83
2019-03-20T18:00:15.876Z,2.87
2019-03-20T18:02:44.121Z,2.87
2019-03-20T18:05:12.360Z,3.20
2019-03-20T18:07:40.606Z,2.50
2019-03-20T18:10:08.865Z,2.87
2019-03-20T18:12:37.085Z,2.72
2019-03-20T18:15:08.477Z,5.80
2019-03-20T18:17:36.698Z,3.65
2019-03-20T18:20:08.340Z,3.30
2019-03-20T18:22:36.561Z,4.03
2019-03-20T18:25:07.353Z,6.58
2019-03-20T18:27:50.295Z,4.62
2019-03-20T18:30:30.184Z,2.83
2019-03-20T18:32:58.400Z,3.08
2019-03-20T18:35:26.633Z,3.22
2019-03-20T18:37:54.880Z,2.60
2019-03-20T18:40:25.352Z,2.85
2019-03-20T18:42:53.659Z,2.25
2019-03-20T18:45:25.461Z,3.40
2019-03-20T18:47:53.728Z,3.15
2019-03-20T18:50:22.715Z,6.30
2019-03-20T18:52:51.210Z,6.87
2019-03-20T18:55:19.897Z,5.37
2019-03-20T18:57:48.293Z,6.10
2019-03-20T19:00:32.443Z,5.53
2019-03-20T19:03:09.511Z,4.58
2019-03-20T19:05:46.662Z,6.37
2019-03-20T19:08:14.998Z,4.15
2019-03-20T19:10:43.329Z,3.40
2019-03-20T19:13:11.631Z,3.45
2019-03-20T19:15:39.870Z,2.50
2019-03-20T19:18:08.100Z,2.12
2019-03-20T19:20:36.422Z,2.17
2019-03-20T19:23:04.817Z,2.72
2019-03-20T19:25:33.078Z,1.98
2019-03-20T19:28:01.329Z,2.75
2019-03-20T19:30:29.561Z,3.58
2019-03-20T19:32:57.809Z,2.87
2019-03-20T19:35:26.045Z,2.67
2019-03-20T19:37:54.301Z,3.42
2019-03-20T19:40:22.830Z,3.52
2019-03-20T19:42:51.072Z,3.37
2019-03-20T19:45:19.371Z,2.45
2019-03-20T19:47:47.603Z,2.70
2019-03-20T19:50:17.095Z,2.25
2019-03-20T19:52:45.316Z,2.62
2019-03-20T19:55:17.160Z,3.10
2019-03-20T19:57:45.457Z,2.70
2019-03-20T20:00:15.900Z,2.95
2019-03-20T20:02:44.141Z,3.60
2019-03-20T20:05:16.003Z,5.33
2019-03-20T20:07:43.056Z,4.15
2019-03-20T20:10:13.899Z,3.75
2019-03-20T20:12:42.129Z,4.17
2019-03-20T20:15:24.168Z,3.87
2019-03-20T20:17:52.427Z,4.33
2019-03-20T20:20:34.304Z,3.77
2019-03-20T20:23:04.369Z,3.90
2019-03-20T20:25:32.501Z,3.95
2019-03-20T20:28:00.765Z,4.70
2019-03-20T20:30:29.000Z,4.58
2019-03-20T20:32:57.226Z,3.80
2019-03-20T20:35:25.462Z,5.97
2019-03-20T20:37:53.722Z,8.98
2019-03-20T20:40:27.361Z,5.72
2019-03-20T20:42:55.571Z,6.33
2019-03-20T20:45:23.824Z,4.65
2019-03-20T20:47:52.061Z,4.75
2019-03-20T20:50:20.299Z,4.40
2019-03-20T20:52:48.538Z,4.70
2019-03-20T20:55:23.456Z,4.75
2019-03-20T20:57:52.194Z,5.33
2019-03-20T21:00:27.210Z,5.47
2019-03-20T21:02:55.437Z,5.08
2019-03-20T21:05:23.701Z,6.10
2019-03-20T21:07:51.948Z,5.55
2019-03-20T21:10:24.114Z,5.45
2019-03-20T21:12:56.624Z,7.62
2019-03-20T21:15:36.924Z,5.65
2019-03-20T21:18:20.562Z,5.25
2019-03-20T21:20:48.982Z,5.70
2019-03-20T21:23:38.265Z,4.85
2019-03-20T21:26:19.003Z,6.15
2019-03-20T21:29:24.066Z,5.60
2019-03-20T21:32:13.426Z,5.50
2019-03-20T21:35:03.122Z,7.45
2019-03-20T21:37:51.264Z,5.85
2019-03-20T21:40:19.569Z,5.80
2019-03-20T21:43:22.591Z,5.85
2019-03-20T21:45:59.688Z,7.05
2019-03-20T21:48:27.953Z,7.12
2019-03-20T21:50:59.436Z,6.22
2019-03-20T21:53:39.876Z,5.08
2019-03-20T21:56:37.130Z,6.53
2019-03-20T21:59:35.604Z,6.65
2019-03-20T22:02:15.977Z,6.15
2019-03-20T22:04:44.210Z,5.30
2019-03-20T22:07:12.473Z,5.70
2019-03-20T22:09:56.342Z,6.03
2019-03-20T22:12:30.602Z,5.78
2019-03-20T22:15:29.885Z,6.85
2019-03-20T22:18:13.227Z,5.65
2019-03-20T22:20:56.245Z,6.05
2019-03-20T22:23:36.507Z,5.72
2019-03-20T22:26:24.905Z,6.08
2019-03-20T22:29:20.404Z,5.97
2019-03-20T22:32:10.206Z,5.20
2019-03-20T22:34:56.032Z,5.67
2019-03-20T22:37:24.271Z,6.37
2019-03-20T22:40:14.065Z,5.30
2019-03-20T22:42:51.638Z,5.28
2019-03-20T22:45:39.813Z,4.72
2019-03-20T22:48:46.097Z,5.15
2019-03-20T22:51:37.022Z,4.67
2019-03-20T22:54:22.892Z,5.08
2019-03-20T22:57:06.415Z,5.87
2019-03-20T22:59:34.675Z,4.70
2019-03-20T23:02:24.436Z,5.55
2019-03-20T23:04:55.761Z,5.22
2019-03-20T23:07:24.012Z,6.05
2019-03-20T23:09:52.250Z,5.10
2019-03-20T23:12:20.654Z,5.42
2019-03-20T23:14:48.961Z,5.35
2019-03-20T23:17:17.192Z,5.45
2019-03-20T23:19:46.190Z,5.85
2019-03-20T23:22:14.410Z,5.00
2019-03-20T23:24:43.301Z,4.80
2019-03-20T23:27:14.792Z,4.72
2019-03-20T23:29:43.016Z,4.92
2019-03-20T23:32:11.332Z,5.17
2019-03-20T23:34:39.604Z,5.00
2019-03-20T23:37:07.843Z,4.65
2019-03-20T23:39:36.096Z,5.60
2019-03-20T23:42:04.695Z,5.30
2019-03-20T23:44:32.916Z,5.70
2019-03-20T23:47:01.177Z,5.67
2019-03-20T23:49:29.411Z,5.80
2019-03-20T23:51:57.661Z,5.15
2019-03-20T23:54:32.523Z,5.20
2019-03-20T23:57:00.913Z,5.65
2019-03-20T23:59:29.136Z,5.22
